sensor_id;sensor_type;location;lat;lon;timestamp;pressure;altitude;pressure_sealevel;temperature;humidity
19023;BME280;35226;48.606;8.858;2024-02-26T00:02:05;94411.09;;;6.40;100.00
19023;BME280;35226;48.606;8.858;2024-02-26T00:04:32;94406.34;;;6.50;100.00
19023;BME280;35226;48.606;8.858;2024-02-26T00:06:57;94395.06;;;6.48;100.00
19023;BME280;35226;48.606;8.858;2024-02-26T00:09:23;94402.25;;;6.45;100.00
19023;BME280;35226;48.606;8.858;2024-02-26T00:11:49;94401.28;;;6.57;100.00
19023;BME280;35226;48.606;8.858;2024-02-26T00:14:14;94394.88;;;6.60;100.00
19023;BME280;35226;48.606;8.858;2024-02-26T00:16:40;94389.84;;;6.59;100.00
19023;BME280;35226;48.606;8.858;2024-02-26T00:19:06;94393.81;;;6.58;100.00
19023;BME280;35226;48.606;8.858;2024-02-26T00:21:32;94387.28;;;6.55;100.00
19023;BME280;35226;48.606;8.858;2024-02-26T00:23:57;94381.31;;;6.57;100.00
19023;BME280;35226;48.606;8.858;2024-02-26T00:26:23;94363.66;;;6.49;100.00
19023;BME280;35226;48.606;8.858;2024-02-26T00:28:48;94363.09;;;6.45;100.00
19023;BME280;35226;48.606;8.858;2024-02-26T00:31:14;94372.59;;;6.35;100.00
19023;BME280;35226;48.606;8.858;2024-02-26T00:33:39;94368.44;;;6.39;100.00
19023;BME280;35226;48.606;8.858;2024-02-26T00:36:05;94372.41;;;6.38;100.00
19023;BME280;35226;48.606;8.858;2024-02-26T00:38:31;94389.66;;;6.29;100.00
19023;BME280;35226;48.606;8.858;2024-02-26T00:40:56;94369.47;;;6.51;100.00
19023;BME280;35226;48.606;8.858;2024-02-26T00:43:22;94366.09;;;6.56;100.00
19023;BME280;35226;48.606;8.858;2024-02-26T00:45:47;94380.03;;;6.67;100.00
19023;BME280;35226;48.606;8.858;2024-02-26T00:48:13;94366.84;;;6.56;100.00
19023;BME280;35226;48.606;8.858;2024-02-26T00:50:39;94361.53;;;6.53;100.00
19023;BME280;35226;48.606;8.858;2024-02-26T00:53:05;94357.88;;;6.56;100.00
19023;BME280;35226;48.606;8.858;2024-02-26T00:55:30;94358.03;;;6.52;100.00
19023;BME280;35226;48.606;8.858;2024-02-26T00:57:56;94394.97;;;6.33;100.00
19023;BME280;35226;48.606;8.858;2024-02-26T01:00:21;94400.53;;;6.15;100.00
19023;BME280;35226;48.606;8.858;2024-02-26T01:02:47;94390.25;;;6.66;100.00
19023;BME280;35226;48.606;8.858;2024-02-26T01:05:15;94391.66;;;6.62;100.00
19023;BME280;35226;48.606;8.858;2024-02-26T01:07:41;94392.13;;;6.60;100.00
19023;BME280;35226;48.606;8.858;2024-02-26T01:10:07;94397.00;;;6.65;100.00
19023;BME280;35226;48.606;8.858;2024-02-26T01:12:33;94413.47;;;6.65;100.00
19023;BME280;35226;48.606;8.858;2024-02-26T01:15:00;94411.50;;;6.57;100.00
19023;BME280;35226;48.606;8.858;2024-02-26T01:17:25;94393.91;;;6.73;100.00
19023;BME280;35226;48.606;8.858;2024-02-26T01:19:51;94401.72;;;6.65;100.00
19023;BME280;35226;48.606;8.858;2024-02-26T01:22:17;94415.41;;;6.74;100.00
19023;BME280;35226;48.606;8.858;2024-02-26T01:24:43;94419.19;;;6.77;100.00
19023;BME280;35226;48.606;8.858;2024-02-26T01:27:08;94391.22;;;6.63;100.00
19023;BME280;35226;48.606;8.858;2024-02-26T01:29:34;94400.25;;;6.55;100.00
19023;BME280;35226;48.606;8.858;2024-02-26T01:32:00;94419.63;;;6.42;100.00
19023;BME280;35226;48.606;8.858;2024-02-26T01:34:25;94425.06;;;6.60;100.00
19023;BME280;35226;48.606;8.858;2024-02-26T01:36:50;94429.78;;;6.60;100.00
19023;BME280;35226;48.606;8.858;2024-02-26T01:39:16;94421.69;;;6.56;100.00
19023;BME280;35226;48.606;8.858;2024-02-26T01:41:41;94415.19;;;6.54;100.00
19023;BME280;35226;48.606;8.858;2024-02-26T01:44:07;94423.09;;;6.52;100.00
19023;BME280;35226;48.606;8.858;2024-02-26T01:46:34;94420.03;;;6.59;100.00
19023;BME280;35226;48.606;8.858;2024-02-26T01:49:01;94416.66;;;6.64;100.00
19023;BME280;35226;48.606;8.858;2024-02-26T01:51:27;94410.28;;;6.58;100.00
19023;BME280;35226;48.606;8.858;2024-02-26T01:53:53;94401.34;;;6.39;100.00
19023;BME280;35226;48.606;8.858;2024-02-26T01:56:19;94412.44;;;6.54;100.00
19023;BME280;35226;48.606;8.858;2024-02-26T01:58:46;94427.34;;;6.62;100.00
19023;BME280;35226;48.606;8.858;2024-02-26T02:01:15;94444.63;;;6.44;100.00
19023;BME280;35226;48.606;8.858;2024-02-26T02:03:42;94439.13;;;6.44;100.00
19023;BME280;35226;48.606;8.858;2024-02-26T02:06:08;94437.88;;;6.54;100.00
19023;BME280;35226;48.606;8.858;2024-02-26T02:08:34;94432.56;;;6.51;100.00
19023;BME280;35226;48.606;8.858;2024-02-26T02:11:00;94440.63;;;6.54;100.00
19023;BME280;35226;48.606;8.858;2024-02-26T02:13:26;94432.47;;;6.69;100.00
19023;BME280;35226;48.606;8.858;2024-02-26T02:15:54;94446.78;;;6.82;100.00
19023;BME280;35226;48.606;8.858;2024-02-26T02:18:19;94436.38;;;6.86;100.00
19023;BME280;35226;48.606;8.858;2024-02-26T02:20:45;94420.25;;;6.79;100.00
19023;BME280;35226;48.606;8.858;2024-02-26T02:23:10;94416.75;;;6.79;100.00
19023;BME280;35226;48.606;8.858;2024-02-26T02:25:36;94400.47;;;6.66;100.00
19023;BME280;35226;48.606;8.858;2024-02-26T02:28:02;94394.66;;;6.73;100.00
19023;BME280;35226;48.606;8.858;2024-02-26T02:30:29;94406.78;;;6.90;100.00
19023;BME280;35226;48.606;8.858;2024-02-26T02:32:56;94411.22;;;6.88;100.00
19023;BME280;35226;48.606;8.858;2024-02-26T02:35:23;94409.13;;;6.83;100.00
19023;BME280;35226;48.606;8.858;2024-02-26T02:37:51;94409.38;;;6.94;100.00
19023;BME280;35226;48.606;8.858;2024-02-26T02:40:17;94418.69;;;6.87;100.00
19023;BME280;35226;48.606;8.858;2024-02-26T02:42:42;94431.56;;;6.72;100.00
19023;BME280;35226;48.606;8.858;2024-02-26T02:45:08;94416.94;;;6.75;100.00
19023;BME280;35226;48.606;8.858;2024-02-26T02:47:36;94413.50;;;6.89;100.00
19023;BME280;35226;48.606;8.858;2024-02-26T02:50:02;94418.34;;;6.94;100.00
19023;BME280;35226;48.606;8.858;2024-02-26T02:52:27;94413.03;;;6.91;100.00
19023;BME280;35226;48.606;8.858;2024-02-26T02:54:53;94417.03;;;7.14;100.00
19023;BME280;35226;48.606;8.858;2024-02-26T02:57:18;94430.91;;;6.77;100.00
19023;BME280;35226;48.606;8.858;2024-02-26T02:59:44;94416.38;;;6.95;100.00
19023;BME280;35226;48.606;8.858;2024-02-26T03:02:09;94418.56;;;6.82;100.00
19023;BME280;35226;48.606;8.858;2024-02-26T03:04:34;94416.44;;;6.77;100.00
19023;BME280;35226;48.606;8.858;2024-02-26T03:07:00;94419.38;;;6.97;100.00
19023;BME280;35226;48.606;8.858;2024-02-26T03:09:25;94413.38;;;6.84;100.00
19023;BME280;35226;48.606;8.858;2024-02-26T03:11:51;94407.31;;;7.03;100.00
19023;BME280;35226;48.606;8.858;2024-02-26T03:14:16;94404.78;;;7.24;100.00
19023;BME280;35226;48.606;8.858;2024-02-26T03:16:42;94384.94;;;7.20;100.00
19023;BME280;35226;48.606;8.858;2024-02-26T03:19:07;94382.19;;;7.20;100.00
19023;BME280;35226;48.606;8.858;2024-02-26T03:21:32;94374.63;;;7.15;100.00
19023;BME280;35226;48.606;8.858;2024-02-26T03:23:58;94375.94;;;7.19;100.00
19023;BME280;35226;48.606;8.858;2024-02-26T03:26:24;94376.59;;;7.14;100.00
19023;BME280;35226;48.606;8.858;2024-02-26T03:28:49;94381.97;;;7.09;100.00
19023;BME280;35226;48.606;8.858;2024-02-26T03:31:15;94363.97;;;7.07;100.00
19023;BME280;35226;48.606;8.858;2024-02-26T03:33:40;94370.13;;;7.02;100.00
19023;BME280;35226;48.606;8.858;2024-02-26T03:36:06;94373.44;;;7.06;100.00
19023;BME280;35226;48.606;8.858;2024-02-26T03:38:33;94371.28;;;7.11;100.00
19023;BME280;35226;48.606;8.858;2024-02-26T03:40:58;94375.72;;;7.08;100.00
19023;BME280;35226;48.606;8.858;2024-02-26T03:43:24;94364.25;;;7.10;100.00
19023;BME280;35226;48.606;8.858;2024-02-26T03:45:49;94358.31;;;7.11;100.00
19023;BME280;35226;48.606;8.858;2024-02-26T03:48:15;94358.47;;;7.07;100.00
19023;BME280;35226;48.606;8.858;2024-02-26T03:50:40;94360.47;;;7.07;100.00
19023;BME280;35226;48.606;8.858;2024-02-26T03:53:06;94363.88;;;7.02;100.00
19023;BME280;35226;48.606;8.858;2024-02-26T03:55:34;94368.59;;;7.01;100.00
19023;BME280;35226;48.606;8.858;2024-02-26T03:57:59;94367.69;;;6.95;100.00
19023;BME280;35226;48.606;8.858;2024-02-26T04:00:25;94365.44;;;6.94;100.00
19023;BME280;35226;48.606;8.858;2024-02-26T04:02:51;94371.69;;;6.94;100.00
19023;BME280;35226;48.606;8.858;2024-02-26T04:05:17;94364.38;;;6.91;100.00
19023;BME280;35226;48.606;8.858;2024-02-26T04:07:42;94367.28;;;6.88;100.00
19023;BME280;35226;48.606;8.858;2024-02-26T04:10:11;94362.69;;;6.94;100.00
19023;BME280;35226;48.606;8.858;2024-02-26T04:12:41;94366.19;;;6.94;100.00
19023;BME280;35226;48.606;8.858;2024-02-26T04:15:08;94367.47;;;6.84;100.00
19023;BME280;35226;48.606;8.858;2024-02-26T04:17:34;94372.66;;;6.82;100.00
19023;BME280;35226;48.606;8.858;2024-02-26T04:20:00;94373.44;;;6.83;100.00
19023;BME280;35226;48.606;8.858;2024-02-26T04:22:25;94359.34;;;6.90;100.00
19023;BME280;35226;48.606;8.858;2024-02-26T04:24:51;94371.00;;;6.85;100.00
19023;BME280;35226;48.606;8.858;2024-02-26T04:27:16;94377.31;;;6.67;100.00
19023;BME280;35226;48.606;8.858;2024-02-26T04:29:41;94377.84;;;6.80;100.00
19023;BME280;35226;48.606;8.858;2024-02-26T04:32:07;94365.53;;;6.99;100.00
19023;BME280;35226;48.606;8.858;2024-02-26T04:34:32;94365.19;;;7.06;100.00
19023;BME280;35226;48.606;8.858;2024-02-26T04:36:58;94376.81;;;7.01;100.00
19023;BME280;35226;48.606;8.858;2024-02-26T04:39:23;94369.72;;;6.95;100.00
19023;BME280;35226;48.606;8.858;2024-02-26T04:41:49;94374.25;;;6.98;100.00
19023;BME280;35226;48.606;8.858;2024-02-26T04:44:14;94390.16;;;6.94;100.00
19023;BME280;35226;48.606;8.858;2024-02-26T04:46:40;94387.41;;;6.94;100.00
19023;BME280;35226;48.606;8.858;2024-02-26T04:49:05;94396.41;;;6.94;100.00
19023;BME280;35226;48.606;8.858;2024-02-26T04:51:31;94401.75;;;6.89;100.00
19023;BME280;35226;48.606;8.858;2024-02-26T04:53:56;94400.41;;;6.84;100.00
19023;BME280;35226;48.606;8.858;2024-02-26T04:56:22;94407.50;;;7.00;100.00
19023;BME280;35226;48.606;8.858;2024-02-26T04:58:47;94395.78;;;6.90;100.00
19023;BME280;35226;48.606;8.858;2024-02-26T05:01:13;94396.56;;;6.91;100.00
19023;BME280;35226;48.606;8.858;2024-02-26T05:03:39;94409.88;;;6.83;100.00
19023;BME280;35226;48.606;8.858;2024-02-26T05:06:05;94421.88;;;6.86;100.00
19023;BME280;35226;48.606;8.858;2024-02-26T05:08:30;94432.28;;;6.82;100.00
19023;BME280;35226;48.606;8.858;2024-02-26T05:10:56;94434.72;;;6.80;100.00
19023;BME280;35226;48.606;8.858;2024-02-26T05:13:22;94437.16;;;6.78;100.00
19023;BME280;35226;48.606;8.858;2024-02-26T05:15:47;94442.47;;;6.48;100.00
19023;BME280;35226;48.606;8.858;2024-02-26T05:18:15;94442.53;;;6.72;100.00
19023;BME280;35226;48.606;8.858;2024-02-26T05:20:40;94448.78;;;6.73;100.00
19023;BME280;35226;48.606;8.858;2024-02-26T05:23:06;94442.25;;;6.70;100.00
19023;BME280;35226;48.606;8.858;2024-02-26T05:25:31;94439.94;;;6.68;100.00
19023;BME280;35226;48.606;8.858;2024-02-26T05:27:57;94441.63;;;6.66;100.00
19023;BME280;35226;48.606;8.858;2024-02-26T05:30:22;94434.50;;;6.59;100.00
19023;BME280;35226;48.606;8.858;2024-02-26T05:32:47;94443.03;;;6.61;100.00
19023;BME280;35226;48.606;8.858;2024-02-26T05:35:13;94429.63;;;6.63;100.00
19023;BME280;35226;48.606;8.858;2024-02-26T05:37:38;94431.91;;;6.65;100.00
19023;BME280;35226;48.606;8.858;2024-02-26T05:40:05;94422.91;;;6.64;100.00
19023;BME280;35226;48.606;8.858;2024-02-26T05:42:31;94427.03;;;6.60;100.00
19023;BME280;35226;48.606;8.858;2024-02-26T05:44:56;94414.72;;;6.55;100.00
19023;BME280;35226;48.606;8.858;2024-02-26T05:47:22;94424.75;;;6.58;100.00
19023;BME280;35226;48.606;8.858;2024-02-26T05:49:47;94416.97;;;6.57;100.00
19023;BME280;35226;48.606;8.858;2024-02-26T05:52:14;94425.97;;;6.57;100.00
19023;BME280;35226;48.606;8.858;2024-02-26T05:54:39;94437.44;;;6.56;100.00
19023;BME280;35226;48.606;8.858;2024-02-26T05:57:05;94439.44;;;6.46;100.00
19023;BME280;35226;48.606;8.858;2024-02-26T05:59:30;94440.31;;;6.52;100.00
19023;BME280;35226;48.606;8.858;2024-02-26T06:01:55;94449.47;;;6.49;100.00
19023;BME280;35226;48.606;8.858;2024-02-26T06:04:21;94446.31;;;6.42;100.00
19023;BME280;35226;48.606;8.858;2024-02-26T06:06:46;94449.94;;;6.48;100.00
19023;BME280;35226;48.606;8.858;2024-02-26T06:09:12;94457.88;;;6.46;100.00
19023;BME280;35226;48.606;8.858;2024-02-26T06:11:38;94465.81;;;6.44;100.00
19023;BME280;35226;48.606;8.858;2024-02-26T06:14:04;94461.66;;;6.48;100.00
19023;BME280;35226;48.606;8.858;2024-02-26T06:16:30;94469.19;;;6.20;100.00
19023;BME280;35226;48.606;8.858;2024-02-26T06:18:55;94468.84;;;6.46;100.00
19023;BME280;35226;48.606;8.858;2024-02-26T06:21:22;94476.47;;;6.42;100.00
19023;BME280;35226;48.606;8.858;2024-02-26T06:23:47;94481.56;;;6.07;100.00
19023;BME280;35226;48.606;8.858;2024-02-26T06:26:13;94480.56;;;6.37;100.00
19023;BME280;35226;48.606;8.858;2024-02-26T06:28:38;94495.56;;;5.90;100.00
19023;BME280;35226;48.606;8.858;2024-02-26T06:31:05;94490.69;;;5.94;100.00
19023;BME280;35226;48.606;8.858;2024-02-26T06:33:31;94490.69;;;5.94;100.00
19023;BME280;35226;48.606;8.858;2024-02-26T06:35:57;94498.13;;;6.30;100.00
19023;BME280;35226;48.606;8.858;2024-02-26T06:38:22;94492.31;;;6.38;100.00
19023;BME280;35226;48.606;8.858;2024-02-26T06:40:48;94501.75;;;6.37;100.00
19023;BME280;35226;48.606;8.858;2024-02-26T06:43:14;94513.22;;;6.17;100.00
19023;BME280;35226;48.606;8.858;2024-02-26T06:45:39;94501.75;;;6.37;100.00
19023;BME280;35226;48.606;8.858;2024-02-26T06:48:05;94504.19;;;6.44;100.00
19023;BME280;35226;48.606;8.858;2024-02-26T06:50:30;94503.91;;;6.32;100.00
19023;BME280;35226;48.606;8.858;2024-02-26T06:52:56;94505.41;;;6.43;100.00
19023;BME280;35226;48.606;8.858;2024-02-26T06:55:21;94514.44;;;6.25;100.00
19023;BME280;35226;48.606;8.858;2024-02-26T06:57:47;94517.78;;;6.29;100.00
19023;BME280;35226;48.606;8.858;2024-02-26T07:00:13;94517.00;;;6.38;100.00
19023;BME280;35226;48.606;8.858;2024-02-26T07:02:41;94515.91;;;6.53;100.00
19023;BME280;35226;48.606;8.858;2024-02-26T07:05:07;94519.28;;;6.48;100.00
19023;BME280;35226;48.606;8.858;2024-02-26T07:07:32;94514.72;;;6.45;100.00
19023;BME280;35226;48.606;8.858;2024-02-26T07:09:58;94515.19;;;6.44;100.00
19023;BME280;35226;48.606;8.858;2024-02-26T07:12:23;94525.97;;;6.47;100.00
19023;BME280;35226;48.606;8.858;2024-02-26T07:14:49;94519.28;;;6.48;100.00
19023;BME280;35226;48.606;8.858;2024-02-26T07:17:15;94521.88;;;6.43;100.00
19023;BME280;35226;48.606;8.858;2024-02-26T07:19:42;94506.00;;;6.47;100.00
19023;BME280;35226;48.606;8.858;2024-02-26T07:22:07;94513.63;;;6.52;100.00
19023;BME280;35226;48.606;8.858;2024-02-26T07:24:33;94509.06;;;6.49;100.00
19023;BME280;35226;48.606;8.858;2024-02-26T07:26:58;94508.59;;;6.50;100.00
19023;BME280;35226;48.606;8.858;2024-02-26T07:29:24;94518.97;;;6.55;100.00
19023;BME280;35226;48.606;8.858;2024-02-26T07:31:49;94513.00;;;6.57;100.00
19023;BME280;35226;48.606;8.858;2024-02-26T07:34:14;94503.72;;;6.63;100.00
19023;BME280;35226;48.606;8.858;2024-02-26T07:36:40;94506.59;;;6.60;100.00
19023;BME280;35226;48.606;8.858;2024-02-26T07:39:05;94513.91;;;6.63;100.00
19023;BME280;35226;48.606;8.858;2024-02-26T07:41:31;94522.59;;;6.61;100.00
19023;BME280;35226;48.606;8.858;2024-02-26T07:43:56;94522.13;;;6.72;100.00
19023;BME280;35226;48.606;8.858;2024-02-26T07:46:22;94523.47;;;6.77;100.00
19023;BME280;35226;48.606;8.858;2024-02-26T07:48:47;94527.28;;;6.79;100.00
19023;BME280;35226;48.606;8.858;2024-02-26T07:51:13;94533.06;;;6.81;100.00
19023;BME280;35226;48.606;8.858;2024-02-26T07:53:39;94527.75;;;6.78;100.00
19023;BME280;35226;48.606;8.858;2024-02-26T07:56:05;94531.13;;;6.73;100.00
19023;BME280;35226;48.606;8.858;2024-02-26T07:58:32;94536.13;;;6.83;100.00
19023;BME280;35226;48.606;8.858;2024-02-26T08:00:57;94530.69;;;6.47;100.00
19023;BME280;35226;48.606;8.858;2024-02-26T08:03:23;94537.88;;;6.44;100.00
19023;BME280;35226;48.606;8.858;2024-02-26T08:05:48;94531.31;;;6.42;100.00
19023;BME280;35226;48.606;8.858;2024-02-26T08:08:14;94533.38;;;6.83;100.00
19023;BME280;35226;48.606;8.858;2024-02-26T08:10:39;94526.78;;;6.90;100.00
19023;BME280;35226;48.606;8.858;2024-02-26T08:13:04;94520.97;;;6.97;100.00
19023;BME280;35226;48.606;8.858;2024-02-26T08:15:35;94527.53;;;6.99;100.00
19023;BME280;35226;48.606;8.858;2024-02-26T08:18:04;94520.00;;;7.09;100.00
19023;BME280;35226;48.606;8.858;2024-02-26T08:20:30;94536.06;;;7.01;100.00
19023;BME280;35226;48.606;8.858;2024-02-26T08:22:56;94536.50;;;7.09;100.00
19023;BME280;35226;48.606;8.858;2024-02-26T08:25:23;94535.53;;;7.21;100.00
19023;BME280;35226;48.606;8.858;2024-02-26T08:27:48;94534.00;;;7.20;100.00
19023;BME280;35226;48.606;8.858;2024-02-26T08:30:15;94534.75;;;6.79;100.00
19023;BME280;35226;48.606;8.858;2024-02-26T08:32:48;94534.97;;;7.08;100.00
19023;BME280;35226;48.606;8.858;2024-02-26T08:35:14;94538.75;;;7.20;100.00
19023;BME280;35226;48.606;8.858;2024-02-26T08:37:40;94541.59;;;7.25;100.00
19023;BME280;35226;48.606;8.858;2024-02-26T08:40:06;94540.88;;;7.16;100.00
19023;BME280;35226;48.606;8.858;2024-02-26T08:42:32;94540.75;;;7.10;100.00
19023;BME280;35226;48.606;8.858;2024-02-26T08:44:57;94534.16;;;7.17;100.00
19023;BME280;35226;48.606;8.858;2024-02-26T08:47:25;94545.28;;;7.22;100.00
19023;BME280;35226;48.606;8.858;2024-02-26T08:49:51;94550.81;;;7.13;100.00
19023;BME280;35226;48.606;8.858;2024-02-26T08:52:16;94539.16;;;7.27;100.00
19023;BME280;35226;48.606;8.858;2024-02-26T08:54:42;94546.63;;;7.27;100.00
19023;BME280;35226;48.606;8.858;2024-02-26T08:57:07;94541.59;;;7.25;100.00
19023;BME280;35226;48.606;8.858;2024-02-26T08:59:33;94545.59;;;7.24;100.00
19023;BME280;35226;48.606;8.858;2024-02-26T09:01:58;94532.91;;;7.27;100.00
19023;BME280;35226;48.606;8.858;2024-02-26T09:04:24;94537.19;;;7.28;100.00
19023;BME280;35226;48.606;8.858;2024-02-26T09:06:49;94547.25;;;7.31;100.00
19023;BME280;35226;48.606;8.858;2024-02-26T09:09:14;94559.00;;;7.31;100.00
19023;BME280;35226;48.606;8.858;2024-02-26T09:11:40;94546.78;;;7.32;100.00
19023;BME280;35226;48.606;8.858;2024-02-26T09:14:05;94542.16;;;7.38;100.00
19023;BME280;35226;48.606;8.858;2024-02-26T09:16:31;94541.81;;;7.46;100.00
19023;BME280;35226;48.606;8.858;2024-02-26T09:18:57;94539.31;;;7.57;100.00
19023;BME280;35226;48.606;8.858;2024-02-26T09:21:22;94544.19;;;7.62;100.00
19023;BME280;35226;48.606;8.858;2024-02-26T09:23:50;94548.72;;;7.65;100.00
19023;BME280;35226;48.606;8.858;2024-02-26T09:26:16;94551.31;;;7.68;100.00
19023;BME280;35226;48.606;8.858;2024-02-26T09:28:42;94544.50;;;7.64;100.00
19023;BME280;35226;48.606;8.858;2024-02-26T09:31:07;94535.59;;;7.69;100.00
19023;BME280;35226;48.606;8.858;2024-02-26T09:33:33;94538.56;;;7.80;100.00
19023;BME280;35226;48.606;8.858;2024-02-26T09:35:58;94540.22;;;7.87;100.00
19023;BME280;35226;48.606;8.858;2024-02-26T09:38:28;94541.38;;;7.95;100.00
19023;BME280;35226;48.606;8.858;2024-02-26T09:40:56;94537.31;;;8.05;100.00
19023;BME280;35226;48.606;8.858;2024-02-26T09:43:22;94536.56;;;8.04;100.00
19023;BME280;35226;48.606;8.858;2024-02-26T09:45:53;94546.03;;;8.03;100.00
19023;BME280;35226;48.606;8.858;2024-02-26T09:48:19;94552.75;;;8.26;100.00
19023;BME280;35226;48.606;8.858;2024-02-26T09:50:46;94558.97;;;8.36;100.00
19023;BME280;35226;48.606;8.858;2024-02-26T09:53:12;94556.34;;;8.56;100.00
19023;BME280;35226;48.606;8.858;2024-02-26T09:55:40;94562.72;;;8.62;100.00
19023;BME280;35226;48.606;8.858;2024-02-26T09:58:05;94560.47;;;8.61;100.00
19023;BME280;35226;48.606;8.858;2024-02-26T10:00:31;94556.00;;;8.78;100.00
19023;BME280;35226;48.606;8.858;2024-02-26T10:03:03;94565.03;;;8.93;100.00
19023;BME280;35226;48.606;8.858;2024-02-26T10:05:29;94569.19;;;9.03;100.00
19023;BME280;35226;48.606;8.858;2024-02-26T10:07:57;94570.72;;;8.89;100.00
19023;BME280;35226;48.606;8.858;2024-02-26T10:10:23;94563.41;;;9.01;100.00
19023;BME280;35226;48.606;8.858;2024-02-26T10:12:49;94566.91;;;9.02;100.00
19023;BME280;35226;48.606;8.858;2024-02-26T10:15:15;94564.56;;;9.09;100.00
19023;BME280;35226;48.606;8.858;2024-02-26T10:17:41;94568.34;;;9.12;100.00
19023;BME280;35226;48.606;8.858;2024-02-26T10:20:12;94573.28;;;9.22;100.00
19023;BME280;35226;48.606;8.858;2024-02-26T10:22:38;94571.16;;;9.32;100.00
19023;BME280;35226;48.606;8.858;2024-02-26T10:25:04;94571.81;;;9.42;100.00
19023;BME280;35226;48.606;8.858;2024-02-26T10:27:30;94577.72;;;9.35;100.00
19023;BME280;35226;48.606;8.858;2024-02-26T10:29:56;94573.38;;;9.28;100.00
19023;BME280;35226;48.606;8.858;2024-02-26T10:32:22;94571.94;;;9.47;100.00
19023;BME280;35226;48.606;8.858;2024-02-26T10:34:48;94570.94;;;9.50;100.00
19023;BME280;35226;48.606;8.858;2024-02-26T10:37:13;94569.66;;;9.46;100.00
19023;BME280;35226;48.606;8.858;2024-02-26T10:39:39;94573.72;;;9.50;100.00
19023;BME280;35226;48.606;8.858;2024-02-26T10:42:04;94571.88;;;9.62;100.00
19023;BME280;35226;48.606;8.858;2024-02-26T10:44:35;94581.56;;;9.72;100.00
19023;BME280;35226;48.606;8.858;2024-02-26T10:47:00;94580.59;;;9.75;100.00
19023;BME280;35226;48.606;8.858;2024-02-26T10:49:26;94588.88;;;9.75;100.00
19023;BME280;35226;48.606;8.858;2024-02-26T10:51:55;94593.56;;;9.89;100.00
19023;BME280;35226;48.606;8.858;2024-02-26T10:54:26;94588.34;;;9.91;100.00
19023;BME280;35226;48.606;8.858;2024-02-26T10:56:53;94588.63;;;9.93;100.00
19023;BME280;35226;48.606;8.858;2024-02-26T10:59:21;94588.31;;;10.06;100.00
19023;BME280;35226;48.606;8.858;2024-02-26T11:01:48;94593.53;;;10.04;100.00
19023;BME280;35226;48.606;8.858;2024-02-26T11:04:16;94585.22;;;10.19;100.00
19023;BME280;35226;48.606;8.858;2024-02-26T11:06:43;94580.41;;;10.34;100.00
19023;BME280;35226;48.606;8.858;2024-02-26T11:09:11;94583.72;;;10.38;100.00
19023;BME280;35226;48.606;8.858;2024-02-26T11:11:38;94587.78;;;10.43;100.00
19023;BME280;35226;48.606;8.858;2024-02-26T11:14:06;94590.34;;;10.66;100.00
19023;BME280;35226;48.606;8.858;2024-02-26T11:16:35;94591.94;;;10.79;100.00
19023;BME280;35226;48.606;8.858;2024-02-26T11:19:02;94599.81;;;10.86;100.00
19023;BME280;35226;48.606;8.858;2024-02-26T11:21:28;94602.63;;;10.91;100.00
19023;BME280;35226;48.606;8.858;2024-02-26T11:24:11;94596.06;;;10.89;100.00
19023;BME280;35226;48.606;8.858;2024-02-26T11:26:53;94599.34;;;11.13;100.00
19023;BME280;35226;48.606;8.858;2024-02-26T11:29:26;94601.28;;;11.07;100.00
19023;BME280;35226;48.606;8.858;2024-02-26T11:31:52;94599.97;;;11.28;100.00
19023;BME280;35226;48.606;8.858;2024-02-26T11:34:18;94603.84;;;11.10;100.00
19023;BME280;35226;48.606;8.858;2024-02-26T11:36:45;94605.19;;;11.21;100.00
19023;BME280;35226;48.606;8.858;2024-02-26T11:39:11;94605.31;;;11.37;100.00
19023;BME280;35226;48.606;8.858;2024-02-26T11:41:42;94601.91;;;11.48;100.00
19023;BME280;35226;48.606;8.858;2024-02-26T11:44:08;94597.19;;;11.54;100.00
19023;BME280;35226;48.606;8.858;2024-02-26T11:46:40;94607.88;;;11.41;100.00
19023;BME280;35226;48.606;8.858;2024-02-26T11:51:55;94608.84;;;11.38;100.00
19023;BME280;35226;48.606;8.858;2024-02-26T11:59:48;94629.28;;;12.09;100.00
19023;BME280;35226;48.606;8.858;2024-02-26T12:02:40;94624.22;;;12.02;100.00
19023;BME280;35226;48.606;8.858;2024-02-26T12:05:15;94627.09;;;12.18;100.00
19023;BME280;35226;48.606;8.858;2024-02-26T12:07:46;94629.66;;;12.28;100.00
19023;BME280;35226;48.606;8.858;2024-02-26T12:10:17;94618.31;;;12.26;100.00
19023;BME280;35226;48.606;8.858;2024-02-26T12:12:46;94614.28;;;12.27;100.00
19023;BME280;35226;48.606;8.858;2024-02-26T12:15:11;94619.72;;;12.10;100.00
19023;BME280;35226;48.606;8.858;2024-02-26T12:17:40;94618.00;;;12.12;100.00
19023;BME280;35226;48.606;8.858;2024-02-26T12:20:10;94610.19;;;12.16;100.00
19023;BME280;35226;48.606;8.858;2024-02-26T12:22:37;94615.75;;;12.16;100.00
19023;BME280;35226;48.606;8.858;2024-02-26T12:25:05;94619.25;;;12.17;100.00
19023;BME280;35226;48.606;8.858;2024-02-26T12:27:31;94618.00;;;12.12;100.00
19023;BME280;35226;48.606;8.858;2024-02-26T12:29:56;94617.88;;;12.44;100.00
19023;BME280;35226;48.606;8.858;2024-02-26T12:32:23;94607.94;;;12.63;100.00
19023;BME280;35226;48.606;8.858;2024-02-26T12:34:49;94614.19;;;12.52;100.00
19023;BME280;35226;48.606;8.858;2024-02-26T12:37:16;94609.41;;;12.53;100.00
19023;BME280;35226;48.606;8.858;2024-02-26T12:39:41;94609.63;;;12.49;100.00
19023;BME280;35226;48.606;8.858;2024-02-26T12:42:08;94603.53;;;12.40;100.00
19023;BME280;35226;48.606;8.858;2024-02-26T12:44:34;94601.31;;;12.49;100.00
19023;BME280;35226;48.606;8.858;2024-02-26T12:47:01;94605.34;;;12.48;100.00
19023;BME280;35226;48.606;8.858;2024-02-26T12:49:28;94604.31;;;12.46;100.00
19023;BME280;35226;48.606;8.858;2024-02-26T12:51:53;94615.63;;;12.42;100.00
19023;BME280;35226;48.606;8.858;2024-02-26T12:54:19;94617.66;;;12.42;100.00
19023;BME280;35226;48.606;8.858;2024-02-26T12:56:45;94617.50;;;12.62;100.00
19023;BME280;35226;48.606;8.858;2024-02-26T12:59:10;94616.84;;;12.89;100.00
19023;BME280;35226;48.606;8.858;2024-02-26T13:01:36;94613.78;;;12.82;100.00